createdAt,value
2023-11-30T00:01:26.415Z,11.13
2023-11-30T00:03:57.863Z,8.55
2023-11-30T00:06:29.288Z,11.63
2023-11-30T00:08:58.607Z,9.75
2023-11-30T00:11:27.592Z,9.63
2023-11-30T00:14:01.721Z,11.70
2023-11-30T00:16:28.332Z,8.90
2023-11-30T00:18:57.212Z,8.00
2023-11-30T00:21:23.836Z,7.53
2023-11-30T00:23:50.456Z,8.10
2023-11-30T00:26:17.039Z,7.43
2023-11-30T00:28:45.875Z,9.07
2023-11-30T00:31:14.723Z,8.82
2023-11-30T00:33:41.323Z,8.85
2023-11-30T00:36:11.243Z,11.15
2023-11-30T00:38:37.772Z,11.73
2023-11-30T00:41:06.564Z,9.35
2023-11-30T00:43:33.118Z,10.57
2023-11-30T00:46:06.810Z,8.75
2023-11-30T00:48:36.406Z,11.15
2023-11-30T00:51:03.609Z,6.20
2023-11-30T00:53:32.710Z,8.50
2023-11-30T00:56:01.677Z,11.43
2023-11-30T00:58:29.857Z,9.48
2023-11-30T01:00:59.673Z,9.73
2023-11-30T01:03:26.371Z,9.90
2023-11-30T01:05:52.945Z,11.40
2023-11-30T01:08:21.959Z,10.80
2023-11-30T01:10:51.026Z,9.02
2023-11-30T01:13:17.617Z,9.20
2023-11-30T01:15:44.287Z,11.90
2023-11-30T01:18:11.510Z,11.50
2023-11-30T01:20:38.116Z,8.52
2023-11-30T01:23:05.665Z,11.25
2023-11-30T01:25:35.472Z,9.13
2023-11-30T01:28:02.018Z,9.45
2023-11-30T01:30:28.560Z,11.35
2023-11-30T01:32:55.279Z,9.38
2023-11-30T01:35:21.955Z,10.85
2023-11-30T01:37:48.465Z,9.75
2023-11-30T01:40:19.894Z,10.80
2023-11-30T01:42:46.390Z,14.02
2023-11-30T01:45:15.687Z,10.60
2023-11-30T01:47:44.543Z,12.43
2023-11-30T01:50:11.720Z,12.02
2023-11-30T01:52:38.633Z,9.35
2023-11-30T01:55:06.170Z,10.38
2023-11-30T01:57:32.858Z,10.77
2023-11-30T02:00:01.974Z,10.68
2023-11-30T02:02:29.884Z,9.02
2023-11-30T02:04:56.399Z,11.50
2023-11-30T02:07:25.266Z,11.43
2023-11-30T02:09:51.868Z,10.05
2023-11-30T02:12:20.916Z,12.18
2023-11-30T02:14:50.060Z,11.07
2023-11-30T02:17:16.989Z,10.82
2023-11-30T02:19:43.646Z,10.48
2023-11-30T02:22:12.465Z,11.68
2023-11-30T02:24:39.001Z,10.63
2023-11-30T02:27:05.699Z,12.45
2023-11-30T02:29:32.269Z,17.77
2023-11-30T02:32:01.183Z,10.90
2023-11-30T02:34:30.193Z,12.25
2023-11-30T02:36:56.795Z,10.75
2023-11-30T02:39:23.354Z,10.98
2023-11-30T02:41:54.953Z,9.57
2023-11-30T02:44:21.522Z,9.73
2023-11-30T02:46:50.492Z,11.90
2023-11-30T02:49:17.925Z,9.60
2023-11-30T02:51:46.794Z,13.20
2023-11-30T02:54:13.445Z,13.30
2023-11-30T02:56:41.299Z,11.07
2023-11-30T02:59:07.816Z,11.23
2023-11-30T03:01:34.509Z,16.45
2023-11-30T03:04:03.450Z,12.30
2023-11-30T03:06:35.234Z,9.05
2023-11-30T03:09:01.882Z,13.63
2023-11-30T03:11:28.436Z,10.93
2023-11-30T03:13:54.975Z,13.70
2023-11-30T03:16:28.692Z,12.05
2023-11-30T03:19:10.188Z,12.70
2023-11-30T03:21:44.988Z,13.43
2023-11-30T03:24:12.331Z,12.68
2023-11-30T03:26:38.947Z,14.30
2023-11-30T03:29:08.023Z,15.77
2023-11-30T03:31:40.360Z,12.75
2023-11-30T03:34:09.973Z,11.48
2023-11-30T03:36:36.742Z,12.65
2023-11-30T03:39:03.868Z,15.85
2023-11-30T03:41:32.773Z,16.52
2023-11-30T03:43:59.387Z,15.57
2023-11-30T03:46:26.121Z,15.18
2023-11-30T03:48:56.005Z,16.73
2023-11-30T03:51:22.932Z,18.95
2023-11-30T03:53:49.530Z,19.90
2023-11-30T03:56:20.950Z,16.15
2023-11-30T03:58:49.936Z,16.38
2023-11-30T04:01:23.957Z,29.98
2023-11-30T04:03:53.164Z,16.27
2023-11-30T04:06:25.438Z,23.52
2023-11-30T04:08:53.232Z,21.15
2023-11-30T04:11:22.352Z,15.60
2023-11-30T04:13:49.172Z,17.95
2023-11-30T04:16:18.982Z,14.98
2023-11-30T04:18:48.114Z,16.45
2023-11-30T04:21:17.118Z,16.63
2023-11-30T04:23:43.663Z,15.88
2023-11-30T04:26:11.046Z,16.63
2023-11-30T04:28:40.157Z,15.15
2023-11-30T04:31:07.447Z,13.73
2023-11-30T04:33:34.365Z,12.65
2023-11-30T04:36:00.945Z,19.50
2023-11-30T04:38:30.643Z,14.82
2023-11-30T04:40:57.282Z,13.25
2023-11-30T04:43:26.882Z,18.63
2023-11-30T04:45:54.055Z,16.13
2023-11-30T04:48:20.967Z,15.75
2023-11-30T04:50:50.053Z,17.13
2023-11-30T04:53:16.620Z,18.65
2023-11-30T04:55:48.052Z,16.23
2023-11-30T04:58:15.255Z,14.43
2023-11-30T05:00:43.258Z,16.40
2023-11-30T05:03:10.054Z,15.75
2023-11-30T05:05:39.013Z,16.80
2023-11-30T05:08:05.528Z,15.32
2023-11-30T05:10:34.658Z,13.70
2023-11-30T05:13:01.392Z,14.93
2023-11-30T05:15:31.166Z,16.25
2023-11-30T05:17:57.831Z,12.30
2023-11-30T05:20:24.348Z,12.55
2023-11-30T05:22:50.926Z,16.15
2023-11-30T05:25:17.666Z,15.75
2023-11-30T05:27:44.216Z,18.90
2023-11-30T05:30:11.049Z,15.27
2023-11-30T05:32:40.204Z,12.90
2023-11-30T05:35:09.532Z,15.13
2023-11-30T05:37:36.125Z,18.05
2023-11-30T05:40:02.686Z,11.38
2023-11-30T05:42:29.442Z,13.70
2023-11-30T05:44:56.192Z,13.45
2023-11-30T05:47:24.241Z,11.70
2023-11-30T05:49:51.627Z,11.98
2023-11-30T05:52:18.264Z,16.73
2023-11-30T05:54:44.778Z,12.60
2023-11-30T05:57:11.391Z,16.80
2023-11-30T05:59:40.347Z,12.05
2023-11-30T06:02:12.172Z,15.95
2023-11-30T06:04:39.853Z,14.73
2023-11-30T06:07:06.729Z,14.18
2023-11-30T06:09:33.222Z,10.30
2023-11-30T06:12:02.585Z,12.80
2023-11-30T06:14:31.478Z,15.13
2023-11-30T06:16:58.361Z,13.18
2023-11-30T06:19:25.374Z,12.00
2023-11-30T06:21:51.941Z,12.95
2023-11-30T06:24:20.532Z,14.32
2023-11-30T06:26:47.022Z,15.90
2023-11-30T06:29:17.117Z,15.32
2023-11-30T06:31:43.628Z,14.93
2023-11-30T06:34:15.093Z,15.57
2023-11-30T06:36:41.698Z,11.75
2023-11-30T06:39:10.553Z,12.52
2023-11-30T06:41:39.637Z,14.25
2023-11-30T06:44:08.429Z,13.90
2023-11-30T06:46:36.596Z,12.23
2023-11-30T06:49:05.672Z,13.73
2023-11-30T06:51:37.595Z,13.23
2023-11-30T06:54:04.531Z,12.27
2023-11-30T06:56:31.683Z,11.48
2023-11-30T06:58:59.127Z,12.52
2023-11-30T07:01:30.813Z,15.30
2023-11-30T07:03:59.953Z,10.73
2023-11-30T07:06:26.986Z,13.75
2023-11-30T07:08:58.521Z,14.50
2023-11-30T07:11:27.400Z,15.60
2023-11-30T07:13:54.580Z,16.70
2023-11-30T07:16:21.233Z,17.05
2023-11-30T07:18:50.980Z,17.42
2023-11-30T07:21:17.685Z,15.93
2023-11-30T07:23:44.684Z,13.95
2023-11-30T07:26:15.358Z,14.77
2023-11-30T07:28:43.073Z,13.98
2023-11-30T07:31:18.498Z,16.08
2023-11-30T07:33:45.146Z,16.13
2023-11-30T07:36:15.424Z,15.48
2023-11-30T07:38:42.003Z,19.08
2023-11-30T07:41:09.292Z,18.10
2023-11-30T07:43:36.574Z,17.30
2023-11-30T07:46:05.413Z,14.77
2023-11-30T07:48:34.025Z,16.25
2023-11-30T07:51:00.711Z,17.92
2023-11-30T07:53:27.367Z,18.38
2023-11-30T07:55:58.523Z,21.27
2023-11-30T07:58:27.504Z,17.40
2023-11-30T08:00:54.446Z,19.80
2023-11-30T08:03:23.872Z,18.33
2023-11-30T08:05:50.409Z,17.52
2023-11-30T08:08:20.283Z,16.67
2023-11-30T08:10:49.228Z,15.77
2023-11-30T08:13:18.741Z,18.75
2023-11-30T08:15:45.616Z,17.52
2023-11-30T08:18:15.450Z,16.92
2023-11-30T08:20:44.070Z,19.17
2023-11-30T08:23:13.236Z,16.35
2023-11-30T08:25:40.143Z,22.45
2023-11-30T08:28:09.598Z,24.40
2023-11-30T08:30:37.363Z,20.45
2023-11-30T08:33:07.038Z,18.70
2023-11-30T08:35:36.282Z,19.48
2023-11-30T08:38:02.940Z,18.73
2023-11-30T08:40:29.516Z,21.02
2023-11-30T08:42:56.048Z,27.02
2023-11-30T08:45:22.842Z,19.13
2023-11-30T08:47:49.484Z,21.80
2023-11-30T08:50:17.469Z,20.48
2023-11-30T08:52:48.889Z,25.10
2023-11-30T08:55:18.094Z,19.98
2023-11-30T08:57:49.934Z,17.10
2023-11-30T09:00:20.250Z,20.33
2023-11-30T09:02:47.228Z,18.98
2023-11-30T09:05:13.949Z,17.83
2023-11-30T09:07:43.562Z,19.08
2023-11-30T09:10:10.521Z,20.13
2023-11-30T09:12:37.598Z,20.38
2023-11-30T09:15:10.136Z,18.88
2023-11-30T09:17:37.201Z,27.13
2023-11-30T09:20:09.172Z,17.55
2023-11-30T09:22:36.340Z,16.42
2023-11-30T09:25:06.120Z,20.23
2023-11-30T09:27:33.346Z,28.77
2023-11-30T09:30:02.482Z,20.65
2023-11-30T09:32:29.092Z,23.60
2023-11-30T09:34:56.314Z,16.27
2023-11-30T09:37:22.886Z,17.48
2023-11-30T09:39:52.325Z,15.77
2023-11-30T09:42:19.819Z,14.75
2023-11-30T09:44:46.794Z,15.48
2023-11-30T09:47:18.138Z,16.17
2023-11-30T09:49:44.848Z,17.30
2023-11-30T09:52:11.878Z,15.27
2023-11-30T09:54:41.112Z,14.50
2023-11-30T09:57:11.001Z,16.00
2023-11-30T09:59:40.092Z,21.00
2023-11-30T10:02:10.818Z,16.73
2023-11-30T10:04:40.754Z,18.27
2023-11-30T10:07:08.585Z,17.38
2023-11-30T10:09:37.105Z,15.38
2023-11-30T10:12:05.014Z,15.05
2023-11-30T10:14:34.328Z,12.90
2023-11-30T10:17:03.953Z,19.15
2023-11-30T10:19:31.797Z,23.27
2023-11-30T10:22:01.434Z,15.15
2023-11-30T10:24:31.588Z,17.42
2023-11-30T10:27:09.832Z,18.83
2023-11-30T10:29:43.140Z,14.38
2023-11-30T10:32:16.518Z,17.40
2023-11-30T10:34:58.185Z,18.08
2023-11-30T10:37:27.704Z,15.45
2023-11-30T10:40:04.924Z,16.85
2023-11-30T10:42:34.400Z,18.70
2023-11-30T10:45:12.593Z,20.85
2023-11-30T10:47:42.627Z,20.15
2023-11-30T10:50:10.888Z,23.25
2023-11-30T10:52:37.611Z,22.63
2023-11-30T10:55:13.503Z,33.58
2023-11-30T10:57:47.733Z,24.80
2023-11-30T11:00:16.357Z,22.15
2023-11-30T11:02:48.577Z,24.95
2023-11-30T11:05:19.627Z,19.33
2023-11-30T11:07:55.546Z,20.55
2023-11-30T11:10:28.088Z,18.13
2023-11-30T11:13:00.237Z,18.52
2023-11-30T11:15:29.904Z,16.80
2023-11-30T11:18:05.116Z,14.80
2023-11-30T11:20:36.629Z,18.45
2023-11-30T11:23:14.920Z,17.08
2023-11-30T11:25:47.763Z,20.50
2023-11-30T11:28:18.574Z,18.60
2023-11-30T11:30:54.741Z,18.15
2023-11-30T11:33:26.304Z,18.60
2023-11-30T11:35:55.460Z,19.30
2023-11-30T11:38:22.135Z,18.77
2023-11-30T11:40:51.314Z,18.67
2023-11-30T11:43:20.497Z,18.02
2023-11-30T11:45:49.537Z,14.57
2023-11-30T11:48:18.494Z,22.92
2023-11-30T11:50:56.202Z,15.63
2023-11-30T11:53:23.474Z,14.10
2023-11-30T11:55:50.058Z,17.15
2023-11-30T11:58:16.734Z,17.05
2023-11-30T12:00:56.526Z,17.70
2023-11-30T12:03:24.170Z,15.50
2023-11-30T12:08:36.325Z,15.05
2023-11-30T12:11:03.082Z,17.00
2023-11-30T12:13:30.564Z,15.70
2023-11-30T12:15:59.689Z,23.42
2023-11-30T12:18:26.835Z,13.40
2023-11-30T12:20:54.196Z,15.45
2023-11-30T12:23:20.781Z,16.30
2023-11-30T12:25:47.361Z,19.30
2023-11-30T12:28:17.347Z,17.23
2023-11-30T12:30:47.267Z,15.88
2023-11-30T12:33:15.665Z,18.98
2023-11-30T12:35:47.138Z,11.73
2023-11-30T12:38:17.224Z,18.08
2023-11-30T12:40:46.372Z,16.05
2023-11-30T12:43:13.003Z,16.30
2023-11-30T12:45:40.087Z,18.75
2023-11-30T12:48:06.809Z,17.38
2023-11-30T12:50:33.561Z,17.45
2023-11-30T12:53:00.267Z,16.50
2023-11-30T12:55:26.995Z,17.65
2023-11-30T12:57:57.175Z,18.92
2023-11-30T13:00:24.172Z,19.30
2023-11-30T13:02:51.047Z,16.50
2023-11-30T13:05:22.686Z,19.25
2023-11-30T13:07:51.109Z,18.45
2023-11-30T13:10:18.624Z,20.80
2023-11-30T13:12:48.929Z,15.90
2023-11-30T13:15:18.190Z,18.65
2023-11-30T13:17:47.057Z,25.73
2023-11-30T13:20:14.808Z,20.35
2023-11-30T13:25:12.552Z,19.98
2023-11-30T13:27:39.147Z,20.80
2023-11-30T13:30:06.257Z,18.63
2023-11-30T13:32:37.431Z,23.48
2023-11-30T13:35:06.472Z,19.92
2023-11-30T13:37:38.046Z,18.08
2023-11-30T13:40:08.389Z,23.83
2023-11-30T13:42:34.997Z,20.48
2023-11-30T13:45:02.475Z,21.15
2023-11-30T13:47:31.545Z,20.40
2023-11-30T13:50:00.427Z,22.40
2023-11-30T13:52:28.629Z,22.92
2023-11-30T13:54:55.315Z,18.92
2023-11-30T13:57:21.870Z,19.20
2023-11-30T13:59:48.434Z,22.30
2023-11-30T14:02:15.052Z,22.52
2023-11-30T14:04:43.868Z,20.42
2023-11-30T14:07:13.592Z,21.48
2023-11-30T14:09:42.716Z,19.00
2023-11-30T14:12:11.957Z,21.25
2023-11-30T14:14:39.944Z,19.90
2023-11-30T14:17:06.589Z,22.45
2023-11-30T14:19:34.916Z,19.45
2023-11-30T14:24:33.320Z,20.65
2023-11-30T14:27:02.540Z,21.55
2023-11-30T14:29:29.073Z,19.08
2023-11-30T14:31:55.708Z,22.38
2023-11-30T14:34:22.387Z,17.75
2023-11-30T14:36:49.073Z,25.70
2023-11-30T14:39:16.108Z,22.23
2023-11-30T14:41:42.853Z,20.02
2023-11-30T14:44:11.716Z,20.70
2023-11-30T14:46:38.367Z,22.30
2023-11-30T14:49:06.190Z,20.55
2023-11-30T14:51:32.806Z,18.25
2023-11-30T14:53:59.993Z,32.22
2023-11-30T14:56:26.637Z,21.65
2023-11-30T14:58:59.806Z,19.52
2023-11-30T15:01:26.494Z,22.95
2023-11-30T15:03:53.215Z,26.30
2023-11-30T15:06:19.890Z,21.25
2023-11-30T15:08:46.446Z,26.17
2023-11-30T15:11:13.052Z,27.25
2023-11-30T15:13:39.681Z,20.13
2023-11-30T15:16:06.686Z,24.58
2023-11-30T15:18:33.792Z,18.42
2023-11-30T15:21:03.359Z,19.10
2023-11-30T15:23:29.944Z,21.42
2023-11-30T15:25:56.914Z,23.00
2023-11-30T15:28:24.018Z,23.70
2023-11-30T15:30:55.414Z,21.98
2023-11-30T15:33:24.430Z,18.90
2023-11-30T15:35:51.124Z,23.15
2023-11-30T15:38:17.673Z,22.60
2023-11-30T15:40:44.223Z,25.20
2023-11-30T15:43:12.981Z,23.63
2023-11-30T15:45:39.632Z,23.33
2023-11-30T15:48:07.199Z,44.63
2023-11-30T15:50:33.974Z,18.05
2023-11-30T15:53:03.848Z,20.23
2023-11-30T15:55:30.491Z,20.42
2023-11-30T15:58:06.045Z,19.27
2023-11-30T16:00:35.906Z,19.80
2023-11-30T16:03:10.332Z,18.70
2023-11-30T16:05:37.660Z,22.27
2023-11-30T16:08:04.523Z,25.90
2023-11-30T16:10:33.374Z,18.77
2023-11-30T16:12:59.995Z,19.45
2023-11-30T16:15:27.383Z,21.40
2023-11-30T16:17:58.386Z,17.50
2023-11-30T16:20:25.562Z,18.50
2023-11-30T16:22:52.191Z,21.90
2023-11-30T16:25:18.838Z,26.15
2023-11-30T16:27:45.604Z,22.10
2023-11-30T16:30:16.008Z,21.13
2023-11-30T16:32:42.843Z,27.23
2023-11-30T16:35:09.637Z,24.83
2023-11-30T16:37:36.224Z,20.67
2023-11-30T16:40:05.887Z,22.25
2023-11-30T16:42:33.024Z,25.40
2023-11-30T16:45:02.728Z,18.98
2023-11-30T16:47:29.412Z,25.75
2023-11-30T16:49:58.646Z,35.92
2023-11-30T16:52:25.287Z,30.38
2023-11-30T16:54:51.980Z,23.60
2023-11-30T16:57:23.480Z,22.77
2023-11-30T16:59:52.427Z,21.10
2023-11-30T17:02:19.063Z,22.05
2023-11-30T17:04:45.689Z,22.30
2023-11-30T17:07:14.580Z,23.63
2023-11-30T17:09:47.674Z,21.40
2023-11-30T17:12:14.404Z,23.73
2023-11-30T17:14:43.587Z,19.77
2023-11-30T17:17:10.215Z,21.65
2023-11-30T17:19:39.179Z,16.58
2023-11-30T17:22:05.877Z,20.55
2023-11-30T17:24:34.542Z,22.27
2023-11-30T17:27:01.123Z,21.88
2023-11-30T17:29:27.697Z,23.35
2023-11-30T17:31:54.316Z,27.38
2023-11-30T17:34:23.290Z,20.77
2023-11-30T17:36:49.939Z,24.42
2023-11-30T17:39:18.781Z,21.70
2023-11-30T17:41:45.745Z,22.02
2023-11-30T17:44:14.890Z,23.40
2023-11-30T17:46:45.053Z,20.38
2023-11-30T17:49:12.444Z,27.70
2023-11-30T17:51:46.391Z,29.40
2023-11-30T17:54:12.939Z,28.70
2023-11-30T17:56:39.825Z,23.52
2023-11-30T17:59:06.452Z,30.02
2023-11-30T18:01:33.074Z,37.30
2023-11-30T18:03:59.695Z,27.90
2023-11-30T18:06:29.143Z,31.05
2023-11-30T18:08:55.987Z,27.85
2023-11-30T18:11:22.667Z,23.25
2023-11-30T18:13:49.479Z,31.92
2023-11-30T18:16:16.398Z,27.83
2023-11-30T18:18:45.786Z,21.98
2023-11-30T18:21:14.940Z,26.60
2023-11-30T18:23:41.638Z,30.17
2023-11-30T18:26:08.219Z,31.05
2023-11-30T18:28:34.824Z,27.65
2023-11-30T18:31:12.253Z,24.55
2023-11-30T18:33:49.402Z,20.23
2023-11-30T18:36:16.154Z,19.98
2023-11-30T18:38:51.360Z,20.40
2023-11-30T18:41:24.477Z,23.70
2023-11-30T18:43:53.561Z,23.42
2023-11-30T18:46:20.250Z,21.65
2023-11-30T18:48:47.054Z,25.25
2023-11-30T18:51:14.158Z,29.10
2023-11-30T18:53:43.062Z,23.65
2023-11-30T18:56:12.139Z,27.00
2023-11-30T18:58:39.675Z,22.50
2023-11-30T19:01:06.537Z,24.58
2023-11-30T19:03:33.251Z,27.48
2023-11-30T19:05:59.932Z,24.10
2023-11-30T19:08:26.713Z,27.98
2023-11-30T19:10:55.355Z,26.77
2023-11-30T19:13:21.887Z,24.45
2023-11-30T19:15:48.505Z,27.77
2023-11-30T19:18:19.768Z,22.50
2023-11-30T19:20:48.817Z,26.08
2023-11-30T19:23:17.786Z,29.80
2023-11-30T19:25:46.748Z,25.05
2023-11-30T19:28:13.363Z,23.45
2023-11-30T19:30:40.030Z,30.75
2023-11-30T19:33:06.733Z,26.58
2023-11-30T19:35:36.576Z,29.63
2023-11-30T19:38:03.168Z,27.50
2023-11-30T19:40:29.871Z,28.67
2023-11-30T19:42:58.914Z,26.90
2023-11-30T19:45:27.938Z,30.10
2023-11-30T19:47:55.136Z,27.67
2023-11-30T19:50:21.863Z,27.33
2023-11-30T19:52:48.776Z,30.13
2023-11-30T19:55:16.009Z,24.48
2023-11-30T19:57:45.315Z,26.95
2023-11-30T20:00:12.254Z,24.30
2023-11-30T20:02:39.031Z,32.70
2023-11-30T20:05:06.044Z,31.48
2023-11-30T20:07:35.021Z,29.33
2023-11-30T20:10:01.622Z,27.48
2023-11-30T20:12:29.079Z,31.75
2023-11-30T20:14:55.861Z,33.63
2023-11-30T20:17:22.452Z,32.47
2023-11-30T20:19:51.478Z,30.35
2023-11-30T20:22:21.216Z,37.25
2023-11-30T20:24:47.722Z,30.55
2023-11-30T20:27:14.340Z,25.20
2023-11-30T20:29:43.229Z,40.47
2023-11-30T20:32:12.307Z,31.25
2023-11-30T20:34:41.109Z,40.83
2023-11-30T20:37:07.814Z,27.13
2023-11-30T20:39:35.682Z,38.17
2023-11-30T20:42:04.137Z,34.00
2023-11-30T20:44:33.005Z,38.58
2023-11-30T20:47:00.527Z,24.02
2023-11-30T20:49:27.269Z,28.52
2023-11-30T20:51:54.018Z,34.67
2023-11-30T20:54:20.568Z,46.00
2023-11-30T20:56:48.650Z,37.40
2023-11-30T20:59:18.374Z,48.20
2023-11-30T21:01:45.270Z,29.27
2023-11-30T21:04:14.292Z,38.95
2023-11-30T21:06:40.947Z,29.48
2023-11-30T21:09:10.086Z,70.93
2023-11-30T21:11:41.752Z,25.92
2023-11-30T21:14:13.141Z,31.10
2023-11-30T21:16:39.772Z,60.65
2023-11-30T21:19:06.643Z,23.25
2023-11-30T21:21:38.071Z,27.27
2023-11-30T21:24:05.072Z,38.15
2023-11-30T21:26:31.749Z,35.03
2023-11-30T21:29:00.863Z,25.75
2023-11-30T21:31:30.044Z,32.55
2023-11-30T21:33:56.790Z,25.67
2023-11-30T21:36:25.851Z,23.17
2023-11-30T21:38:54.726Z,57.33
2023-11-30T21:41:21.541Z,30.88
2023-11-30T21:43:48.502Z,40.17
2023-11-30T21:46:18.010Z,51.28
2023-11-30T21:48:47.261Z,23.25
2023-11-30T21:51:13.880Z,19.10
2023-11-30T21:53:42.805Z,23.65
2023-11-30T21:56:12.816Z,29.25
2023-11-30T21:58:39.623Z,27.27
2023-11-30T22:01:06.900Z,27.95
2023-11-30T22:03:35.906Z,20.10
2023-11-30T22:06:04.912Z,21.08
2023-11-30T22:08:34.032Z,15.45
2023-11-30T22:11:00.568Z,14.27
2023-11-30T22:13:27.090Z,17.88
2023-11-30T22:15:59.814Z,14.45
2023-11-30T22:18:37.465Z,19.10
2023-11-30T22:21:04.626Z,17.67
2023-11-30T22:23:36.052Z,22.63
2023-11-30T22:26:05.248Z,14.65
2023-11-30T22:28:31.866Z,23.98
2023-11-30T22:30:59.746Z,24.90
2023-11-30T22:33:28.981Z,44.95
2023-11-30T22:35:55.655Z,27.77
2023-11-30T22:38:22.371Z,20.05
2023-11-30T22:40:53.772Z,38.42
2023-11-30T22:43:20.465Z,35.60
2023-11-30T22:45:47.048Z,20.70
2023-11-30T22:48:15.948Z,23.60
2023-11-30T22:50:42.612Z,15.23
2023-11-30T22:53:11.581Z,26.02
2023-11-30T22:55:39.883Z,35.90
2023-11-30T22:58:06.618Z,38.45
2023-11-30T23:00:35.678Z,24.92
2023-11-30T23:03:02.663Z,22.95
2023-11-30T23:05:29.381Z,21.15
2023-11-30T23:07:58.291Z,27.40
2023-11-30T23:10:24.822Z,26.13
2023-11-30T23:12:54.061Z,24.30
2023-11-30T23:15:20.629Z,26.65
2023-11-30T23:17:49.676Z,30.98
2023-11-30T23:20:16.338Z,29.80
2023-11-30T23:22:43.297Z,36.58
2023-11-30T23:25:10.402Z,20.75
2023-11-30T23:27:36.956Z,26.20
2023-11-30T23:30:05.996Z,29.25
2023-11-30T23:32:32.747Z,31.20
2023-11-30T23:34:59.420Z,28.08
2023-11-30T23:37:26.052Z,26.73
2023-11-30T23:39:55.093Z,26.02
2023-11-30T23:42:21.746Z,29.65
2023-11-30T23:44:48.701Z,31.77
2023-11-30T23:47:15.361Z,29.58
2023-11-30T23:49:42.214Z,29.35
2023-11-30T23:52:08.781Z,25.33
2023-11-30T23:54:37.807Z,28.27
2023-11-30T23:57:06.217Z,24.15
2023-11-30T23:59:35.123Z,24.15
